Seabourn Quest — C6YZ5 — position and weather

sailwx.info

Track history (hours):
 
Tides and Currents Weather Stations Pressure Air Temp Water Temp Dewpoint Dewpoint Depression Visibility Wind Speed Wind Dir Waves Ship Positions

Seabourn Quest

Last reported at 2014-Jul-22 01:33 UTC. Time now 2014-Jul-23 05:27 UTC.
Position N 66°29' E 011°08'.

Length 197 m; draft 6.7 m.

Type: Passenger vessel. MMSI: 311038900.

Date/timePositionNaut miles runAvg speedWind from/ knotsBaromVisibWave heightAir tempDewpointWater temp
2014-Jul-22 01:33N 66°29' E 011°08'1615.8
2014-Jul-22 00:34N 66°42' E 011°30'1615.8
2014-Jul-21 23:34N 66°53' E 011°58'4816.0
2014-Jul-21 20:33N 67°28' E 013°24'516.1
2014-Jul-21 20:15N 67°31' E 013°33'1116.3
2014-Jul-21 19:33N 67°40' E 013°54'1715.7
2014-Jul-21 18:29N 67°52' E 014°25'25314.1
2014-Jul-21 00:30N 70°39' E 023°21'6 0.3
2014-Jul-20 02:10N 70°43' E 023°33'1015.1
2014-Jul-20 01:31N 70°36' E 023°13'  
2014-Jul-17 21:29N 66°40' E 011°25'  
2014-Jul-14 13:05N 58°35' E 005°00'1514.7
2014-Jul-14 12:03N 58°23' E 005°20'714.9
2014-Jul-14 11:33N 58°18' E 005°30'1514.9
2014-Jul-14 10:33N 58°08' E 005°51'14114.9
2014-Jul-14 01:06N 57°48' E 010°14'916.2
2014-Jul-14 00:33N 57°49' E 010°30'1515.0
2014-Jul-13 23:33N 57°43' E 010°56'1716.9
2014-Jul-13 22:33N 57°31' E 011°19'1716.6
2014-Jul-13 21:33N 57°17' E 011°34'1616.4
2014-Jul-13 20:33N 57°01' E 011°44'1615.6
2014-Jul-13 19:33N 56°46' E 011°53'1515.1
2014-Jul-13 18:33N 56°32' E 011°59'1515.1
2014-Jul-13 17:33N 56°17' E 012°07'1515.5
2014-Jul-13 16:33N 56°08' E 012°30'1515.4
2014-Jul-13 15:33N 55°55' E 012°44'1313.0
2014-Jul-13 14:33N 55°43' E 012°38'1 0.9
2014-Jul-13 13:31N 55°43' E 012°36'0 0.0
2014-Jul-13 12:31N 55°43' E 012°36'0 0.0
2014-Jul-13 11:31N 55°43' E 012°36'0 0.0
2014-Jul-13 10:33N 55°43' E 012°36'0 0.0
2014-Jul-13 09:32N 55°43' E 012°36'0 0.0
2014-Jul-13 08:31N 55°43' E 012°36'0 0.0
2014-Jul-13 07:31N 55°43' E 012°36'0 0.0
2014-Jul-13 06:31N 55°43' E 012°36'0 0.0
2014-Jul-13 05:31N 55°43' E 012°36'1 0.9
2014-Jul-13 04:33N 55°43' E 012°37'7 7.3
2014-Jul-13 03:34N 55°36' E 012°42'1010.3
2014-Jul-13 02:33N 55°26' E 012°42'1111.1
2014-Jul-13 01:33N 55°16' E 012°52'1514.7
2014-Jul-13 00:33N 55°15' E 013°17'3314.7
2014-Jul-12 22:18N 55°13' E 014°16'1215.3
2014-Jul-12 21:31N 55°22' E 014°30'1414.8
2014-Jul-12 20:33N 55°31' E 014°50'3015.2
2014-Jul-12 18:34N 55°46' E 015°36'1515.2
2014-Jul-12 17:33N 55°53' E 015°60'1515.0
2014-Jul-12 16:33N 56°01' E 016°23'  
Track history (hours):
 
Tides and Currents Weather Stations Pressure Air Temp Water Temp Dewpoint Dewpoint Depression Visibility Wind Speed Wind Dir Waves Ship Positions

Seabourn Quest

Last reported at 2014-Jul-22 01:33 UTC. Time now 2014-Jul-23 05:27 UTC.
Position N 66°29' E 011°08'.

Length 197 m; draft 6.7 m.

Type: Passenger vessel. MMSI: 311038900.

Date/timePositionNaut miles runAvg speedWind from/ knotsBaromVisibWave heightAir tempDewpointWater temp
2014-Jul-22 01:33N 66°29' E 011°08'1615.8
2014-Jul-22 00:34N 66°42' E 011°30'1615.8
2014-Jul-21 23:34N 66°53' E 011°58'4816.0
2014-Jul-21 20:33N 67°28' E 013°24'516.1
2014-Jul-21 20:15N 67°31' E 013°33'1116.3
2014-Jul-21 19:33N 67°40' E 013°54'1715.7
2014-Jul-21 18:29N 67°52' E 014°25'25314.1
2014-Jul-21 00:30N 70°39' E 023°21'6 0.3
2014-Jul-20 02:10N 70°43' E 023°33'1015.1
2014-Jul-20 01:31N 70°36' E 023°13'  
2014-Jul-17 21:29N 66°40' E 011°25'  
2014-Jul-14 13:05N 58°35' E 005°00'1514.7
2014-Jul-14 12:03N 58°23' E 005°20'714.9
2014-Jul-14 11:33N 58°18' E 005°30'1514.9
2014-Jul-14 10:33N 58°08' E 005°51'14114.9
2014-Jul-14 01:06N 57°48' E 010°14'916.2
2014-Jul-14 00:33N 57°49' E 010°30'1515.0
2014-Jul-13 23:33N 57°43' E 010°56'1716.9
2014-Jul-13 22:33N 57°31' E 011°19'1716.6
2014-Jul-13 21:33N 57°17' E 011°34'1616.4
2014-Jul-13 20:33N 57°01' E 011°44'1615.6
2014-Jul-13 19:33N 56°46' E 011°53'1515.1
2014-Jul-13 18:33N 56°32' E 011°59'1515.1
2014-Jul-13 17:33N 56°17' E 012°07'1515.5
2014-Jul-13 16:33N 56°08' E 012°30'1515.4
2014-Jul-13 15:33N 55°55' E 012°44'1313.0
2014-Jul-13 14:33N 55°43' E 012°38'1 0.9
2014-Jul-13 13:31N 55°43' E 012°36'0 0.0
2014-Jul-13 12:31N 55°43' E 012°36'0 0.0
2014-Jul-13 11:31N 55°43' E 012°36'0 0.0
2014-Jul-13 10:33N 55°43' E 012°36'0 0.0
2014-Jul-13 09:32N 55°43' E 012°36'0 0.0
2014-Jul-13 08:31N 55°43' E 012°36'0 0.0
2014-Jul-13 07:31N 55°43' E 012°36'0 0.0
2014-Jul-13 06:31N 55°43' E 012°36'0 0.0
2014-Jul-13 05:31N 55°43' E 012°36'1 0.9
2014-Jul-13 04:33N 55°43' E 012°37'7 7.3
2014-Jul-13 03:34N 55°36' E 012°42'1010.3
2014-Jul-13 02:33N 55°26' E 012°42'1111.1
2014-Jul-13 01:33N 55°16' E 012°52'1514.7
2014-Jul-13 00:33N 55°15' E 013°17'3314.7
2014-Jul-12 22:18N 55°13' E 014°16'1215.3
2014-Jul-12 21:31N 55°22' E 014°30'1414.8
2014-Jul-12 20:33N 55°31' E 014°50'3015.2
2014-Jul-12 18:34N 55°46' E 015°36'1515.2
2014-Jul-12 17:33N 55°53' E 015°60'1515.0
2014-Jul-12 16:33N 56°01' E 016°23'  

Dump ship's entire track history